METAR/TAF

Belfast City Airport
BELFAST HARBOUR
Metar
EGAC 150620Z AUTO 21013KT 9999 SCT018/// BKN035/// 17/15 Q1009

06:20 UTC

Wind: 210° 13kt

Visibility: 9999 m

Sky: SCT 1800 ft

Temp: 17 deg C / 62.6 deg F

Dewpoint: 15 deg C / 59 deg F

Pressure: 1009 hPa

TAF
TAF EGAC 150456Z 1506/1515 21013KT 9999 SCT012 BKN020 TEMPO 1506/1508 6000 -RADZ BKN009 TEMPO 1509/1515 21017G27KT
Belfast International Airport
BELFAST/ALDERGRO
Metar
EGAA 150620Z 22012KT 9999 FEW006 SCT011 BKN022 17/15 Q1010

06:20 UTC

Wind: 220° 12kt

Visibility: 9999 m

Sky: FEW 600 ft

Temp: 17 deg C / 62.6 deg F

Dewpoint: 15 deg C / 59 deg F

Pressure: 1010 hPa

TAF
TAF EGAA 150501Z 1506/1606 21012KT 9999 FEW015 SCT025 TEMPO 1506/1507 6000 -RADZ BKN007 TEMPO 1509/1515 22018G28KT PROB30 TEMPO 1517/1606 7000 SHRA
Print Friendly, PDF & Email